首页
METAR-TAF:

METAR-TAF

机场 :

雅典埃莱夫塞里奥斯·韦尼泽洛斯国际机场

雅典, 希腊

纬度: 37-56N, 经度: 023-56E, 海拔: 94米

当前天气观测

该预报发布于16分钟前的11:20 UTC
风速7节,风向南转西南,在东南西之间变化
温度 15°C
湿度 44%
气压 997 hPa
能见度10公里或以上
少量云层高于3000英尺

METAR: LGAV 241120Z 21007KT 140V260 9999 FEW030 15/03 Q0997 NOSIG

时间: 13:36 (11:36 UTC)

预报

该预报发布于6小时和36分钟前的05:00 UTC
预报有效从24日的 06点(UTC)到 25日的 06点(UTC)
风速12节,风向西南
能见度10公里或以上
散云层高于2000英尺
散云层高于7000英尺
成为
从 24日的 21点(UTC)到 24日的 23点(UTC)
风速17节,风向,有时为27节阵风
短暂存在
从 24日的 21点(UTC)到 25日的 06点(UTC)
能見度: 5000
散云层高于1800英尺, 塔状积云.
多云层高于2500英尺
多云层高于7000英尺
几率 40% :
短暂存在
从 25日的 02点(UTC)到 25日的 06点(UTC)
能見度: 3000
少量云层高于1200英尺
散云层高于1800英尺, 积雨云.
多云层高于2000英尺
阴天层高于7000英尺
雷暴, 雨

TAF: LGAV 240500Z 2406/2506 23012KT 9999 SCT020 SCT070 BECMG 2421/2423 18017G27KT TEMPO 2421/2506 5000 RA SCT018TCU BKN025 BKN070 PROB40 TEMPO 2502/2506 3000 TSRA FEW012 SCT018CB BKN020 OVC070

超过4000个机场的气象观测和天气预报(METAR&TAF报告)。

可查询的气象台以黄色和红色小点在地图上表示。

将鼠标移到小点上方,可查看气象台名称。

然后点击查看天气观测和预报。

如需切换地图:点击带黑十字的绿色按钮放大地图;点击带横线的绿色按钮缩小地图;或者点击绿色箭头查看邻近地区的地图。


METAR-TAF: